sensor_id;sensor_type;location;lat;lon;timestamp;P1;durP1;ratioP1;P2;durP2;ratioP2
36663;SDS011;53333;51.976;20.144;2023-07-30T00:00:11;6.47;;;3.30;;
36663;SDS011;53333;51.976;20.144;2023-07-30T00:02:44;7.10;;;3.30;;
36663;SDS011;53333;51.976;20.144;2023-07-30T00:05:17;4.05;;;3.17;;
36663;SDS011;53333;51.976;20.144;2023-07-30T00:07:50;4.00;;;3.08;;
36663;SDS011;53333;51.976;20.144;2023-07-30T00:10:24;4.28;;;3.65;;
36663;SDS011;53333;51.976;20.144;2023-07-30T00:12:58;5.78;;;2.97;;
36663;SDS011;53333;51.976;20.144;2023-07-30T00:15:31;5.20;;;3.00;;
36663;SDS011;53333;51.976;20.144;2023-07-30T00:18:05;4.03;;;3.00;;
36663;SDS011;53333;51.976;20.144;2023-07-30T00:20:38;8.65;;;3.90;;
36663;SDS011;53333;51.976;20.144;2023-07-30T00:23:10;6.57;;;3.45;;
36663;SDS011;53333;51.976;20.144;2023-07-30T00:25:44;3.60;;;2.85;;
36663;SDS011;53333;51.976;20.144;2023-07-30T00:28:18;6.65;;;3.15;;
36663;SDS011;53333;51.976;20.144;2023-07-30T00:30:51;5.53;;;2.97;;
36663;SDS011;53333;51.976;20.144;2023-07-30T00:33:24;3.88;;;3.20;;
36663;SDS011;53333;51.976;20.144;2023-07-30T00:35:57;4.63;;;3.42;;
36663;SDS011;53333;51.976;20.144;2023-07-30T00:38:33;6.28;;;3.67;;
36663;SDS011;53333;51.976;20.144;2023-07-30T00:41:06;5.60;;;4.10;;
36663;SDS011;53333;51.976;20.144;2023-07-30T00:43:40;4.63;;;3.28;;
36663;SDS011;53333;51.976;20.144;2023-07-30T00:46:13;4.90;;;3.40;;
36663;SDS011;53333;51.976;20.144;2023-07-30T00:48:46;5.95;;;4.05;;
36663;SDS011;53333;51.976;20.144;2023-07-30T00:51:20;4.97;;;3.60;;
36663;SDS011;53333;51.976;20.144;2023-07-30T00:53:53;5.10;;;3.13;;
36663;SDS011;53333;51.976;20.144;2023-07-30T00:56:26;5.35;;;4.10;;
36663;SDS011;53333;51.976;20.144;2023-07-30T00:59:00;7.18;;;3.70;;
36663;SDS011;53333;51.976;20.144;2023-07-30T01:01:33;5.05;;;3.45;;
36663;SDS011;53333;51.976;20.144;2023-07-30T01:04:10;4.47;;;2.85;;
36663;SDS011;53333;51.976;20.144;2023-07-30T01:06:43;5.65;;;3.50;;
36663;SDS011;53333;51.976;20.144;2023-07-30T01:09:16;8.73;;;3.33;;
36663;SDS011;53333;51.976;20.144;2023-07-30T01:11:49;4.90;;;3.65;;
36663;SDS011;53333;51.976;20.144;2023-07-30T01:14:24;7.30;;;3.67;;
36663;SDS011;53333;51.976;20.144;2023-07-30T01:16:58;4.22;;;3.60;;
36663;SDS011;53333;51.976;20.144;2023-07-30T01:19:31;7.18;;;3.67;;
36663;SDS011;53333;51.976;20.144;2023-07-30T01:22:05;4.75;;;3.85;;
36663;SDS011;53333;51.976;20.144;2023-07-30T01:24:38;4.65;;;3.85;;
36663;SDS011;53333;51.976;20.144;2023-07-30T01:27:12;4.80;;;3.70;;
36663;SDS011;53333;51.976;20.144;2023-07-30T01:29:51;7.68;;;3.80;;
36663;SDS011;53333;51.976;20.144;2023-07-30T01:32:27;5.60;;;3.78;;
36663;SDS011;53333;51.976;20.144;2023-07-30T01:35:02;6.32;;;4.10;;
36663;SDS011;53333;51.976;20.144;2023-07-30T01:37:40;9.38;;;4.10;;
36663;SDS011;53333;51.976;20.144;2023-07-30T01:40:16;5.28;;;3.80;;
36663;SDS011;53333;51.976;20.144;2023-07-30T01:42:50;7.75;;;4.53;;
36663;SDS011;53333;51.976;20.144;2023-07-30T01:45:23;9.82;;;4.07;;
36663;SDS011;53333;51.976;20.144;2023-07-30T01:47:56;5.45;;;3.97;;
36663;SDS011;53333;51.976;20.144;2023-07-30T01:53:03;5.30;;;4.72;;
36663;SDS011;53333;51.976;20.144;2023-07-30T01:55:36;6.03;;;4.75;;
36663;SDS011;53333;51.976;20.144;2023-07-30T01:58:10;5.95;;;4.45;;
36663;SDS011;53333;51.976;20.144;2023-07-30T02:00:43;7.55;;;5.50;;
36663;SDS011;53333;51.976;20.144;2023-07-30T02:03:18;5.53;;;5.03;;
36663;SDS011;53333;51.976;20.144;2023-07-30T02:05:51;7.13;;;5.72;;
36663;SDS011;53333;51.976;20.144;2023-07-30T02:08:25;6.97;;;5.20;;
36663;SDS011;53333;51.976;20.144;2023-07-30T02:10:58;6.72;;;5.22;;
36663;SDS011;53333;51.976;20.144;2023-07-30T02:16:04;6.90;;;5.00;;
36663;SDS011;53333;51.976;20.144;2023-07-30T02:18:37;8.88;;;6.13;;
36663;SDS011;53333;51.976;20.144;2023-07-30T02:21:10;6.25;;;4.88;;
36663;SDS011;53333;51.976;20.144;2023-07-30T02:23:45;7.28;;;4.35;;
36663;SDS011;53333;51.976;20.144;2023-07-30T02:26:18;6.45;;;4.60;;
36663;SDS011;53333;51.976;20.144;2023-07-30T02:28:50;5.63;;;3.92;;
36663;SDS011;53333;51.976;20.144;2023-07-30T02:31:24;8.45;;;5.18;;
36663;SDS011;53333;51.976;20.144;2023-07-30T02:33:57;5.68;;;4.43;;
36663;SDS011;53333;51.976;20.144;2023-07-30T02:36:30;7.15;;;4.43;;
36663;SDS011;53333;51.976;20.144;2023-07-30T02:39:05;7.18;;;4.10;;
36663;SDS011;53333;51.976;20.144;2023-07-30T02:41:37;8.63;;;4.47;;
36663;SDS011;53333;51.976;20.144;2023-07-30T02:44:11;5.40;;;4.70;;
36663;SDS011;53333;51.976;20.144;2023-07-30T02:46:44;5.55;;;4.30;;
36663;SDS011;53333;51.976;20.144;2023-07-30T02:49:17;6.40;;;4.55;;
36663;SDS011;53333;51.976;20.144;2023-07-30T02:51:50;7.30;;;4.82;;
36663;SDS011;53333;51.976;20.144;2023-07-30T02:54:24;6.57;;;4.82;;
36663;SDS011;53333;51.976;20.144;2023-07-30T02:56:57;7.75;;;5.40;;
36663;SDS011;53333;51.976;20.144;2023-07-30T02:59:30;6.25;;;4.97;;
36663;SDS011;53333;51.976;20.144;2023-07-30T03:02:03;9.00;;;5.93;;
36663;SDS011;53333;51.976;20.144;2023-07-30T03:04:37;8.07;;;5.53;;
36663;SDS011;53333;51.976;20.144;2023-07-30T03:07:10;9.77;;;5.60;;
36663;SDS011;53333;51.976;20.144;2023-07-30T03:09:45;11.20;;;5.95;;
36663;SDS011;53333;51.976;20.144;2023-07-30T03:12:18;8.20;;;6.53;;
36663;SDS011;53333;51.976;20.144;2023-07-30T03:14:51;8.60;;;6.35;;
36663;SDS011;53333;51.976;20.144;2023-07-30T03:17:25;7.38;;;5.80;;
36663;SDS011;53333;51.976;20.144;2023-07-30T03:19:58;7.60;;;5.55;;
36663;SDS011;53333;51.976;20.144;2023-07-30T03:22:31;9.73;;;5.90;;
36663;SDS011;53333;51.976;20.144;2023-07-30T03:25:06;8.40;;;6.38;;
36663;SDS011;53333;51.976;20.144;2023-07-30T03:27:39;7.80;;;6.00;;
36663;SDS011;53333;51.976;20.144;2023-07-30T03:30:12;8.63;;;6.13;;
36663;SDS011;53333;51.976;20.144;2023-07-30T03:32:45;8.18;;;6.03;;
36663;SDS011;53333;51.976;20.144;2023-07-30T03:35:18;6.90;;;6.18;;
36663;SDS011;53333;51.976;20.144;2023-07-30T03:37:51;10.85;;;6.15;;
36663;SDS011;53333;51.976;20.144;2023-07-30T03:40:25;7.55;;;6.53;;
36663;SDS011;53333;51.976;20.144;2023-07-30T03:42:58;8.55;;;6.65;;
36663;SDS011;53333;51.976;20.144;2023-07-30T03:45:33;6.95;;;6.25;;
36663;SDS011;53333;51.976;20.144;2023-07-30T03:48:06;8.98;;;5.90;;
36663;SDS011;53333;51.976;20.144;2023-07-30T03:50:39;5.95;;;5.35;;
36663;SDS011;53333;51.976;20.144;2023-07-30T03:53:12;7.78;;;6.07;;
36663;SDS011;53333;51.976;20.144;2023-07-30T03:55:46;8.25;;;6.10;;
36663;SDS011;53333;51.976;20.144;2023-07-30T03:58:19;9.80;;;6.30;;
36663;SDS011;53333;51.976;20.144;2023-07-30T04:00:52;7.13;;;5.05;;
36663;SDS011;53333;51.976;20.144;2023-07-30T04:03:25;9.20;;;5.10;;
36663;SDS011;53333;51.976;20.144;2023-07-30T04:05:58;6.35;;;5.32;;
36663;SDS011;53333;51.976;20.144;2023-07-30T04:08:31;7.47;;;5.65;;
36663;SDS011;53333;51.976;20.144;2023-07-30T04:11:05;5.70;;;4.95;;
36663;SDS011;53333;51.976;20.144;2023-07-30T04:13:38;6.95;;;5.40;;
36663;SDS011;53333;51.976;20.144;2023-07-30T04:18:45;6.57;;;5.32;;
36663;SDS011;53333;51.976;20.144;2023-07-30T04:21:18;8.32;;;5.47;;
36663;SDS011;53333;51.976;20.144;2023-07-30T04:23:50;7.50;;;5.38;;
36663;SDS011;53333;51.976;20.144;2023-07-30T04:26:28;12.15;;;5.20;;
36663;SDS011;53333;51.976;20.144;2023-07-30T04:29:01;7.25;;;5.22;;
36663;SDS011;53333;51.976;20.144;2023-07-30T04:31:34;6.93;;;5.00;;
36663;SDS011;53333;51.976;20.144;2023-07-30T04:36:40;6.75;;;3.75;;
36663;SDS011;53333;51.976;20.144;2023-07-30T04:39:13;5.28;;;3.83;;
36663;SDS011;53333;51.976;20.144;2023-07-30T04:41:47;5.20;;;4.03;;
36663;SDS011;53333;51.976;20.144;2023-07-30T04:44:20;7.60;;;4.65;;
36663;SDS011;53333;51.976;20.144;2023-07-30T04:46:53;11.30;;;4.70;;
36663;SDS011;53333;51.976;20.144;2023-07-30T04:49:26;7.15;;;3.90;;
36663;SDS011;53333;51.976;20.144;2023-07-30T04:52:00;5.78;;;4.38;;
36663;SDS011;53333;51.976;20.144;2023-07-30T04:54:32;7.03;;;4.72;;
36663;SDS011;53333;51.976;20.144;2023-07-30T04:57:08;6.65;;;5.03;;
36663;SDS011;53333;51.976;20.144;2023-07-30T04:59:41;7.97;;;5.15;;
36663;SDS011;53333;51.976;20.144;2023-07-30T05:02:14;5.50;;;4.93;;
36663;SDS011;53333;51.976;20.144;2023-07-30T05:04:47;7.10;;;4.60;;
36663;SDS011;53333;51.976;20.144;2023-07-30T05:07:20;11.02;;;5.38;;
36663;SDS011;53333;51.976;20.144;2023-07-30T05:09:53;7.85;;;5.57;;
36663;SDS011;53333;51.976;20.144;2023-07-30T05:12:28;9.27;;;5.47;;
36663;SDS011;53333;51.976;20.144;2023-07-30T05:15:01;7.43;;;5.88;;
36663;SDS011;53333;51.976;20.144;2023-07-30T05:17:34;13.05;;;11.48;;
36663;SDS011;53333;51.976;20.144;2023-07-30T05:20:07;7.97;;;6.15;;
36663;SDS011;53333;51.976;20.144;2023-07-30T05:22:41;10.38;;;7.40;;
36663;SDS011;53333;51.976;20.144;2023-07-30T05:25:14;9.35;;;6.32;;
36663;SDS011;53333;51.976;20.144;2023-07-30T05:27:48;10.05;;;6.45;;
36663;SDS011;53333;51.976;20.144;2023-07-30T05:30:21;9.00;;;7.25;;
36663;SDS011;53333;51.976;20.144;2023-07-30T05:32:54;12.48;;;7.43;;
36663;SDS011;53333;51.976;20.144;2023-07-30T05:35:27;11.10;;;7.38;;
36663;SDS011;53333;51.976;20.144;2023-07-30T05:38:03;8.02;;;7.22;;
36663;SDS011;53333;51.976;20.144;2023-07-30T05:40:36;8.63;;;7.50;;
36663;SDS011;53333;51.976;20.144;2023-07-30T05:43:12;9.85;;;7.82;;
36663;SDS011;53333;51.976;20.144;2023-07-30T05:45:44;12.48;;;8.48;;
36663;SDS011;53333;51.976;20.144;2023-07-30T05:48:17;10.20;;;7.85;;
36663;SDS011;53333;51.976;20.144;2023-07-30T05:50:50;10.00;;;7.80;;
36663;SDS011;53333;51.976;20.144;2023-07-30T05:53:23;8.02;;;7.15;;
36663;SDS011;53333;51.976;20.144;2023-07-30T05:55:56;9.38;;;7.18;;
36663;SDS011;53333;51.976;20.144;2023-07-30T05:58:30;7.95;;;6.13;;
36663;SDS011;53333;51.976;20.144;2023-07-30T06:01:03;11.07;;;7.35;;
36663;SDS011;53333;51.976;20.144;2023-07-30T06:03:36;8.88;;;6.28;;
36663;SDS011;53333;51.976;20.144;2023-07-30T06:06:09;9.20;;;7.45;;
36663;SDS011;53333;51.976;20.144;2023-07-30T06:08:42;8.30;;;6.78;;
36663;SDS011;53333;51.976;20.144;2023-07-30T06:11:15;9.90;;;6.57;;
36663;SDS011;53333;51.976;20.144;2023-07-30T06:13:49;10.35;;;7.30;;
36663;SDS011;53333;51.976;20.144;2023-07-30T06:16:22;7.07;;;5.88;;
36663;SDS011;53333;51.976;20.144;2023-07-30T06:18:55;8.38;;;6.57;;
36663;SDS011;53333;51.976;20.144;2023-07-30T06:21:28;9.10;;;5.93;;
36663;SDS011;53333;51.976;20.144;2023-07-30T06:24:01;5.75;;;3.90;;
36663;SDS011;53333;51.976;20.144;2023-07-30T06:26:34;5.43;;;4.10;;
36663;SDS011;53333;51.976;20.144;2023-07-30T06:29:08;7.72;;;6.22;;
36663;SDS011;53333;51.976;20.144;2023-07-30T06:31:41;7.88;;;4.28;;
36663;SDS011;53333;51.976;20.144;2023-07-30T06:34:14;5.32;;;4.82;;
36663;SDS011;53333;51.976;20.144;2023-07-30T06:36:47;5.90;;;4.80;;
36663;SDS011;53333;51.976;20.144;2023-07-30T06:39:20;6.18;;;5.28;;
36663;SDS011;53333;51.976;20.144;2023-07-30T06:41:55;5.43;;;4.88;;
36663;SDS011;53333;51.976;20.144;2023-07-30T06:44:30;11.18;;;6.60;;
36663;SDS011;53333;51.976;20.144;2023-07-30T06:47:05;8.07;;;5.03;;
36663;SDS011;53333;51.976;20.144;2023-07-30T06:49:38;6.43;;;5.47;;
36663;SDS011;53333;51.976;20.144;2023-07-30T06:52:11;5.00;;;4.50;;
36663;SDS011;53333;51.976;20.144;2023-07-30T06:54:44;6.68;;;4.93;;
36663;SDS011;53333;51.976;20.144;2023-07-30T06:57:17;7.38;;;5.28;;
36663;SDS011;53333;51.976;20.144;2023-07-30T06:59:51;4.65;;;4.25;;
36663;SDS011;53333;51.976;20.144;2023-07-30T07:02:24;6.00;;;4.85;;
36663;SDS011;53333;51.976;20.144;2023-07-30T07:07:35;7.20;;;5.47;;
36663;SDS011;53333;51.976;20.144;2023-07-30T07:10:08;6.60;;;5.57;;
36663;SDS011;53333;51.976;20.144;2023-07-30T07:12:42;5.57;;;4.82;;
36663;SDS011;53333;51.976;20.144;2023-07-30T07:15:16;7.45;;;5.65;;
36663;SDS011;53333;51.976;20.144;2023-07-30T07:17:49;8.43;;;5.60;;
36663;SDS011;53333;51.976;20.144;2023-07-30T07:20:22;6.95;;;5.03;;
36663;SDS011;53333;51.976;20.144;2023-07-30T07:22:55;5.50;;;4.30;;
36663;SDS011;53333;51.976;20.144;2023-07-30T07:25:28;5.38;;;4.40;;
36663;SDS011;53333;51.976;20.144;2023-07-30T07:30:35;6.38;;;4.15;;
36663;SDS011;53333;51.976;20.144;2023-07-30T07:33:09;4.75;;;3.88;;
36663;SDS011;53333;51.976;20.144;2023-07-30T07:35:44;4.65;;;3.60;;
36663;SDS011;53333;51.976;20.144;2023-07-30T07:38:17;4.55;;;4.03;;
36663;SDS011;53333;51.976;20.144;2023-07-30T07:40:50;6.72;;;4.95;;
36663;SDS011;53333;51.976;20.144;2023-07-30T07:43:24;6.55;;;4.47;;
36663;SDS011;53333;51.976;20.144;2023-07-30T07:45:59;5.07;;;3.92;;
36663;SDS011;53333;51.976;20.144;2023-07-30T07:48:32;5.05;;;4.03;;
36663;SDS011;53333;51.976;20.144;2023-07-30T07:51:05;4.57;;;3.40;;
36663;SDS011;53333;51.976;20.144;2023-07-30T07:53:37;5.38;;;3.70;;
36663;SDS011;53333;51.976;20.144;2023-07-30T07:56:10;4.35;;;3.95;;
36663;SDS011;53333;51.976;20.144;2023-07-30T07:58:43;4.40;;;3.92;;
36663;SDS011;53333;51.976;20.144;2023-07-30T08:01:17;6.38;;;3.90;;
36663;SDS011;53333;51.976;20.144;2023-07-30T08:03:50;4.40;;;3.85;;
36663;SDS011;53333;51.976;20.144;2023-07-30T08:08:56;4.67;;;3.40;;
36663;SDS011;53333;51.976;20.144;2023-07-30T08:11:29;4.07;;;3.47;;
36663;SDS011;53333;51.976;20.144;2023-07-30T08:14:02;4.20;;;3.40;;
36663;SDS011;53333;51.976;20.144;2023-07-30T08:16:36;4.40;;;4.00;;
36663;SDS011;53333;51.976;20.144;2023-07-30T08:19:10;5.25;;;3.47;;
36663;SDS011;53333;51.976;20.144;2023-07-30T08:24:49;3.70;;;3.40;;
36663;SDS011;53333;51.976;20.144;2023-07-30T08:27:22;3.50;;;3.20;;
36663;SDS011;53333;51.976;20.144;2023-07-30T08:32:29;5.20;;;3.90;;
36663;SDS011;53333;51.976;20.144;2023-07-30T08:35:02;3.92;;;3.60;;
36663;SDS011;53333;51.976;20.144;2023-07-30T08:37:36;4.28;;;3.28;;
36663;SDS011;53333;51.976;20.144;2023-07-30T08:40:09;7.20;;;4.03;;
36663;SDS011;53333;51.976;20.144;2023-07-30T08:42:47;3.40;;;3.10;;
36663;SDS011;53333;51.976;20.144;2023-07-30T08:45:20;4.38;;;3.33;;
36663;SDS011;53333;51.976;20.144;2023-07-30T08:47:54;3.78;;;3.47;;
36663;SDS011;53333;51.976;20.144;2023-07-30T08:50:27;4.45;;;3.60;;
36663;SDS011;53333;51.976;20.144;2023-07-30T08:53:02;4.30;;;3.47;;
36663;SDS011;53333;51.976;20.144;2023-07-30T08:55:35;5.57;;;3.65;;
36663;SDS011;53333;51.976;20.144;2023-07-30T08:58:11;4.97;;;3.83;;
36663;SDS011;53333;51.976;20.144;2023-07-30T09:00:44;5.45;;;3.47;;
36663;SDS011;53333;51.976;20.144;2023-07-30T09:03:24;5.78;;;3.83;;
36663;SDS011;53333;51.976;20.144;2023-07-30T09:05:59;5.97;;;4.38;;
36663;SDS011;53333;51.976;20.144;2023-07-30T09:08:32;5.07;;;3.70;;
36663;SDS011;53333;51.976;20.144;2023-07-30T09:11:09;3.83;;;3.50;;
36663;SDS011;53333;51.976;20.144;2023-07-30T09:13:42;4.68;;;3.75;;
36663;SDS011;53333;51.976;20.144;2023-07-30T09:18:50;3.30;;;3.00;;
36663;SDS011;53333;51.976;20.144;2023-07-30T09:21:30;4.05;;;3.65;;
36663;SDS011;53333;51.976;20.144;2023-07-30T09:24:05;3.80;;;3.40;;
36663;SDS011;53333;51.976;20.144;2023-07-30T09:26:39;6.63;;;3.35;;
36663;SDS011;53333;51.976;20.144;2023-07-30T09:29:14;3.63;;;3.33;;
36663;SDS011;53333;51.976;20.144;2023-07-30T09:31:48;3.95;;;3.53;;
36663;SDS011;53333;51.976;20.144;2023-07-30T09:34:26;3.45;;;3.13;;
36663;SDS011;53333;51.976;20.144;2023-07-30T09:36:59;4.45;;;3.15;;
36663;SDS011;53333;51.976;20.144;2023-07-30T09:39:32;3.75;;;2.88;;
36663;SDS011;53333;51.976;20.144;2023-07-30T09:42:05;2.65;;;2.45;;
36663;SDS011;53333;51.976;20.144;2023-07-30T09:44:38;3.30;;;3.00;;
36663;SDS011;53333;51.976;20.144;2023-07-30T09:47:11;4.30;;;3.35;;
36663;SDS011;53333;51.976;20.144;2023-07-30T09:49:46;4.00;;;2.88;;
36663;SDS011;53333;51.976;20.144;2023-07-30T09:52:19;5.10;;;3.10;;
36663;SDS011;53333;51.976;20.144;2023-07-30T09:54:53;3.30;;;3.00;;
36663;SDS011;53333;51.976;20.144;2023-07-30T09:57:28;3.60;;;3.30;;
36663;SDS011;53333;51.976;20.144;2023-07-30T10:00:01;4.10;;;2.97;;
36663;SDS011;53333;51.976;20.144;2023-07-30T10:02:37;5.65;;;3.42;;
36663;SDS011;53333;51.976;20.144;2023-07-30T10:05:14;3.15;;;2.85;;
36663;SDS011;53333;51.976;20.144;2023-07-30T10:07:49;5.63;;;3.28;;
36663;SDS011;53333;51.976;20.144;2023-07-30T10:10:28;3.35;;;3.05;;
36663;SDS011;53333;51.976;20.144;2023-07-30T10:13:03;3.00;;;2.80;;
36663;SDS011;53333;51.976;20.144;2023-07-30T10:15:39;3.60;;;3.20;;
36663;SDS011;53333;51.976;20.144;2023-07-30T10:18:12;3.05;;;2.72;;
36663;SDS011;53333;51.976;20.144;2023-07-30T10:20:47;3.50;;;3.00;;
36663;SDS011;53333;51.976;20.144;2023-07-30T10:23:27;3.22;;;2.92;;
36663;SDS011;53333;51.976;20.144;2023-07-30T10:26:00;5.75;;;5.00;;
36663;SDS011;53333;51.976;20.144;2023-07-30T10:28:41;3.58;;;3.00;;
36663;SDS011;53333;51.976;20.144;2023-07-30T10:31:15;2.83;;;2.38;;
36663;SDS011;53333;51.976;20.144;2023-07-30T10:33:51;3.45;;;3.15;;
36663;SDS011;53333;51.976;20.144;2023-07-30T10:36:30;3.33;;;3.00;;
36663;SDS011;53333;51.976;20.144;2023-07-30T10:39:11;3.30;;;3.00;;
36663;SDS011;53333;51.976;20.144;2023-07-30T10:41:46;4.22;;;3.78;;
36663;SDS011;53333;51.976;20.144;2023-07-30T10:44:22;4.15;;;2.83;;
36663;SDS011;53333;51.976;20.144;2023-07-30T10:46:57;3.10;;;2.80;;
36663;SDS011;53333;51.976;20.144;2023-07-30T10:49:35;3.28;;;2.97;;
36663;SDS011;53333;51.976;20.144;2023-07-30T10:52:11;3.35;;;2.92;;
36663;SDS011;53333;51.976;20.144;2023-07-30T10:54:44;3.88;;;3.05;;
36663;SDS011;53333;51.976;20.144;2023-07-30T10:57:16;3.47;;;3.10;;
36663;SDS011;53333;51.976;20.144;2023-07-30T10:59:49;5.43;;;2.88;;
36663;SDS011;53333;51.976;20.144;2023-07-30T11:02:22;3.22;;;2.92;;
36663;SDS011;53333;51.976;20.144;2023-07-30T11:04:55;3.25;;;2.90;;
36663;SDS011;53333;51.976;20.144;2023-07-30T11:07:30;2.70;;;2.50;;
36663;SDS011;53333;51.976;20.144;2023-07-30T11:10:03;4.22;;;3.17;;
36663;SDS011;53333;51.976;20.144;2023-07-30T11:12:36;4.18;;;3.53;;
36663;SDS011;53333;51.976;20.144;2023-07-30T11:15:10;4.60;;;3.00;;
36663;SDS011;53333;51.976;20.144;2023-07-30T11:17:43;3.90;;;2.50;;
36663;SDS011;53333;51.976;20.144;2023-07-30T11:20:23;4.35;;;2.70;;
36663;SDS011;53333;51.976;20.144;2023-07-30T11:22:59;4.65;;;2.67;;
36663;SDS011;53333;51.976;20.144;2023-07-30T11:25:32;3.35;;;2.78;;
36663;SDS011;53333;51.976;20.144;2023-07-30T11:30:38;3.10;;;2.65;;
36663;SDS011;53333;51.976;20.144;2023-07-30T11:33:14;2.92;;;2.47;;
36663;SDS011;53333;51.976;20.144;2023-07-30T11:35:48;3.22;;;2.40;;
36663;SDS011;53333;51.976;20.144;2023-07-30T11:40:56;2.70;;;2.50;;
36663;SDS011;53333;51.976;20.144;2023-07-30T11:43:29;3.10;;;2.47;;
36663;SDS011;53333;51.976;20.144;2023-07-30T11:46:06;3.05;;;2.60;;
36663;SDS011;53333;51.976;20.144;2023-07-30T11:48:41;2.60;;;2.40;;
36663;SDS011;53333;51.976;20.144;2023-07-30T11:51:19;2.78;;;2.47;;
36663;SDS011;53333;51.976;20.144;2023-07-30T11:53:55;2.53;;;2.30;;
36663;SDS011;53333;51.976;20.144;2023-07-30T11:56:29;2.78;;;2.45;;
36663;SDS011;53333;51.976;20.144;2023-07-30T11:59:04;3.38;;;2.35;;
36663;SDS011;53333;51.976;20.144;2023-07-30T12:01:38;3.22;;;2.20;;
36663;SDS011;53333;51.976;20.144;2023-07-30T12:04:11;2.63;;;2.42;;
36663;SDS011;53333;51.976;20.144;2023-07-30T12:06:45;4.07;;;2.65;;
36663;SDS011;53333;51.976;20.144;2023-07-30T12:09:21;3.92;;;2.65;;
36663;SDS011;53333;51.976;20.144;2023-07-30T12:11:58;3.25;;;2.75;;
36663;SDS011;53333;51.976;20.144;2023-07-30T12:14:42;3.20;;;2.65;;
36663;SDS011;53333;51.976;20.144;2023-07-30T12:17:16;2.60;;;2.40;;
36663;SDS011;53333;51.976;20.144;2023-07-30T12:19:49;4.80;;;2.38;;
36663;SDS011;53333;51.976;20.144;2023-07-30T12:24:56;2.90;;;2.60;;
36663;SDS011;53333;51.976;20.144;2023-07-30T12:27:29;3.15;;;2.55;;
36663;SDS011;53333;51.976;20.144;2023-07-30T12:30:02;9.80;;;8.75;;
36663;SDS011;53333;51.976;20.144;2023-07-30T12:32:36;3.20;;;2.90;;
36663;SDS011;53333;51.976;20.144;2023-07-30T12:35:09;3.35;;;2.75;;
36663;SDS011;53333;51.976;20.144;2023-07-30T12:40:16;3.80;;;2.50;;
36663;SDS011;53333;51.976;20.144;2023-07-30T12:42:49;3.92;;;3.10;;
36663;SDS011;53333;51.976;20.144;2023-07-30T12:47:55;2.70;;;2.33;;
36663;SDS011;53333;51.976;20.144;2023-07-30T12:50:31;3.15;;;2.40;;
36663;SDS011;53333;51.976;20.144;2023-07-30T12:55:38;2.58;;;2.38;;
36663;SDS011;53333;51.976;20.144;2023-07-30T12:58:11;2.75;;;2.33;;
36663;SDS011;53333;51.976;20.144;2023-07-30T13:00:44;3.10;;;2.55;;
36663;SDS011;53333;51.976;20.144;2023-07-30T13:05:50;2.72;;;2.47;;
36663;SDS011;53333;51.976;20.144;2023-07-30T13:08:23;5.22;;;2.47;;
36663;SDS011;53333;51.976;20.144;2023-07-30T13:13:30;2.63;;;2.42;;
36663;SDS011;53333;51.976;20.144;2023-07-30T13:18:35;2.90;;;2.40;;
36663;SDS011;53333;51.976;20.144;2023-07-30T13:23:41;2.55;;;2.08;;
36663;SDS011;53333;51.976;20.144;2023-07-30T13:28:48;3.70;;;2.55;;
36663;SDS011;53333;51.976;20.144;2023-07-30T13:33:54;4.20;;;2.60;;
36663;SDS011;53333;51.976;20.144;2023-07-30T13:38:59;14.15;;;10.57;;
36663;SDS011;53333;51.976;20.144;2023-07-30T13:44:11;3.15;;;2.63;;
36663;SDS011;53333;51.976;20.144;2023-07-30T13:49:17;2.90;;;2.55;;
36663;SDS011;53333;51.976;20.144;2023-07-30T13:51:52;2.60;;;2.40;;
36663;SDS011;53333;51.976;20.144;2023-07-30T13:57:01;2.95;;;2.70;;
36663;SDS011;53333;51.976;20.144;2023-07-30T13:59:35;3.30;;;3.00;;
36663;SDS011;53333;51.976;20.144;2023-07-30T14:02:08;4.82;;;2.63;;
36663;SDS011;53333;51.976;20.144;2023-07-30T14:07:14;5.40;;;4.80;;
36663;SDS011;53333;51.976;20.144;2023-07-30T14:09:47;4.28;;;3.35;;
36663;SDS011;53333;51.976;20.144;2023-07-30T14:12:21;5.20;;;2.83;;
36663;SDS011;53333;51.976;20.144;2023-07-30T14:14:54;2.60;;;2.40;;
36663;SDS011;53333;51.976;20.144;2023-07-30T14:17:27;3.72;;;2.60;;
36663;SDS011;53333;51.976;20.144;2023-07-30T14:20:00;3.17;;;2.88;;
36663;SDS011;53333;51.976;20.144;2023-07-30T14:22:33;2.70;;;2.50;;
36663;SDS011;53333;51.976;20.144;2023-07-30T14:25:07;3.40;;;3.05;;
36663;SDS011;53333;51.976;20.144;2023-07-30T14:27:41;8.88;;;7.80;;
36663;SDS011;53333;51.976;20.144;2023-07-30T14:30:14;5.70;;;4.00;;
36663;SDS011;53333;51.976;20.144;2023-07-30T14:32:48;4.00;;;2.92;;
36663;SDS011;53333;51.976;20.144;2023-07-30T14:35:21;3.10;;;2.80;;
36663;SDS011;53333;51.976;20.144;2023-07-30T14:37:54;3.35;;;3.05;;
36663;SDS011;53333;51.976;20.144;2023-07-30T14:43:01;3.33;;;2.75;;
36663;SDS011;53333;51.976;20.144;2023-07-30T14:45:34;4.05;;;2.50;;
36663;SDS011;53333;51.976;20.144;2023-07-30T14:48:07;5.25;;;2.75;;
36663;SDS011;53333;51.976;20.144;2023-07-30T14:50:50;3.13;;;2.83;;
36663;SDS011;53333;51.976;20.144;2023-07-30T14:55:56;4.00;;;2.90;;
36663;SDS011;53333;51.976;20.144;2023-07-30T14:58:34;3.53;;;3.20;;
36663;SDS011;53333;51.976;20.144;2023-07-30T15:01:07;3.97;;;3.58;;
36663;SDS011;53333;51.976;20.144;2023-07-30T15:03:43;4.07;;;2.85;;
36663;SDS011;53333;51.976;20.144;2023-07-30T15:06:15;3.47;;;3.10;;
36663;SDS011;53333;51.976;20.144;2023-07-30T15:08:50;3.30;;;3.00;;
36663;SDS011;53333;51.976;20.144;2023-07-30T15:13:57;3.60;;;3.20;;
36663;SDS011;53333;51.976;20.144;2023-07-30T15:16:30;3.70;;;3.40;;
36663;SDS011;53333;51.976;20.144;2023-07-30T15:21:38;3.92;;;3.20;;
36663;SDS011;53333;51.976;20.144;2023-07-30T15:24:19;3.80;;;3.00;;
36663;SDS011;53333;51.976;20.144;2023-07-30T15:26:51;3.40;;;3.05;;
36663;SDS011;53333;51.976;20.144;2023-07-30T15:29:26;3.95;;;3.10;;
36663;SDS011;53333;51.976;20.144;2023-07-30T15:31:59;3.00;;;2.70;;
36663;SDS011;53333;51.976;20.144;2023-07-30T15:34:34;4.93;;;3.10;;
36663;SDS011;53333;51.976;20.144;2023-07-30T15:37:08;3.60;;;2.70;;
36663;SDS011;53333;51.976;20.144;2023-07-30T15:39:42;3.97;;;2.90;;
36663;SDS011;53333;51.976;20.144;2023-07-30T15:42:15;4.63;;;2.95;;
36663;SDS011;53333;51.976;20.144;2023-07-30T15:44:49;3.03;;;2.80;;
36663;SDS011;53333;51.976;20.144;2023-07-30T15:47:22;2.97;;;2.60;;
36663;SDS011;53333;51.976;20.144;2023-07-30T15:52:28;3.53;;;3.07;;
36663;SDS011;53333;51.976;20.144;2023-07-30T15:57:33;3.93;;;3.33;;
36663;SDS011;53333;51.976;20.144;2023-07-30T16:00:10;3.47;;;3.17;;
36663;SDS011;53333;51.976;20.144;2023-07-30T16:02:46;3.92;;;3.22;;
36663;SDS011;53333;51.976;20.144;2023-07-30T16:07:52;3.00;;;2.70;;
36663;SDS011;53333;51.976;20.144;2023-07-30T16:10:24;2.92;;;2.63;;
36663;SDS011;53333;51.976;20.144;2023-07-30T16:15:32;4.47;;;3.67;;
36663;SDS011;53333;51.976;20.144;2023-07-30T16:18:05;6.43;;;5.35;;
36663;SDS011;53333;51.976;20.144;2023-07-30T16:20:38;5.80;;;3.97;;
36663;SDS011;53333;51.976;20.144;2023-07-30T16:23:11;3.47;;;3.08;;
36663;SDS011;53333;51.976;20.144;2023-07-30T16:25:44;4.28;;;3.05;;
36663;SDS011;53333;51.976;20.144;2023-07-30T16:28:17;4.55;;;3.30;;
36663;SDS011;53333;51.976;20.144;2023-07-30T16:30:54;5.55;;;3.20;;
36663;SDS011;53333;51.976;20.144;2023-07-30T16:33:27;3.30;;;3.00;;
36663;SDS011;53333;51.976;20.144;2023-07-30T16:36:01;12.85;;;9.00;;
36663;SDS011;53333;51.976;20.144;2023-07-30T16:38:35;3.30;;;2.95;;
36663;SDS011;53333;51.976;20.144;2023-07-30T16:43:41;3.92;;;2.65;;